createdAt,value
2022-10-13T00:01:28.263Z,0.08
2022-10-13T00:03:58.806Z,0.08
2022-10-13T00:06:29.164Z,0.09
2022-10-13T00:08:59.834Z,0.09
2022-10-13T00:11:30.467Z,0.09
2022-10-13T00:14:00.845Z,0.09
2022-10-13T00:16:30.857Z,0.09
2022-10-13T00:19:01.556Z,0.09
2022-10-13T00:21:31.537Z,0.1
2022-10-13T00:24:01.965Z,0.1
2022-10-13T00:26:32.630Z,0.09
2022-10-13T00:29:03.540Z,0.09
2022-10-13T00:31:34.131Z,0.09
2022-10-13T00:34:04.446Z,0.1
2022-10-13T00:36:35.055Z,0.09
2022-10-13T00:39:05.364Z,0.08
2022-10-13T00:41:35.779Z,0.09
2022-10-13T00:44:06.096Z,0.09
2022-10-13T00:46:36.104Z,0.09
2022-10-13T00:49:06.454Z,0.09
2022-10-13T00:51:37.180Z,0.08
2022-10-13T00:54:07.763Z,0.08
2022-10-13T00:56:38.343Z,0.08
2022-10-13T00:59:09.069Z,0.08
2022-10-13T01:01:39.556Z,0.11
2022-10-13T01:04:10.152Z,0.1
2022-10-13T01:06:40.546Z,0.1
2022-10-13T01:09:10.557Z,0.11
2022-10-13T01:11:41.184Z,0.1
2022-10-13T01:14:11.562Z,0.1
2022-10-13T01:16:42.186Z,0.09
2022-10-13T01:19:12.555Z,0.09
2022-10-13T01:21:42.832Z,0.08
2022-10-13T01:24:13.495Z,0.08
2022-10-13T01:26:43.824Z,0.08
2022-10-13T01:29:14.486Z,0.07
2022-10-13T01:31:44.554Z,0.07
2022-10-13T01:34:15.138Z,0.07
2022-10-13T01:36:45.785Z,0.07
2022-10-13T01:39:15.949Z,0.07
2022-10-13T01:41:46.417Z,0.07
2022-10-13T01:44:16.530Z,0.06
2022-10-13T01:46:46.825Z,0.06
2022-10-13T01:49:16.800Z,0.07
2022-10-13T01:51:47.420Z,0.07
2022-10-13T01:54:17.605Z,0.07
2022-10-13T01:56:47.766Z,0.07
2022-10-13T01:59:18.413Z,0.07
2022-10-13T02:01:49.014Z,0.07
2022-10-13T02:04:19.308Z,0.08
2022-10-13T02:06:49.674Z,0.09
2022-10-13T02:09:19.684Z,0.09
2022-10-13T02:11:50.041Z,0.09
2022-10-13T02:14:20.738Z,0.09
2022-10-13T02:16:51.290Z,0.09
2022-10-13T02:19:21.877Z,0.09
2022-10-13T02:21:52.513Z,0.09
2022-10-13T02:24:23.160Z,0.09
2022-10-13T02:26:53.508Z,0.09
2022-10-13T02:29:23.519Z,0.08
2022-10-13T02:31:53.838Z,0.08
2022-10-13T02:34:24.153Z,0.07
2022-10-13T02:36:54.706Z,0.07
2022-10-13T02:39:25.168Z,0.07
2022-10-13T02:41:55.786Z,0.06
2022-10-13T02:44:26.714Z,0.06
2022-10-13T02:46:56.692Z,0.07
2022-10-13T02:49:27.652Z,0.07
2022-10-13T02:51:58.447Z,0.07
2022-10-13T02:54:28.841Z,0.08
2022-10-13T02:56:59.221Z,0.08
2022-10-13T02:59:29.995Z,0.09
2022-10-13T03:02:00.316Z,0.09
2022-10-13T03:04:30.929Z,0.1
2022-10-13T03:07:00.957Z,0.12
2022-10-13T03:09:31.090Z,0.1
2022-10-13T03:12:01.313Z,0.09
2022-10-13T03:14:31.675Z,0.1
2022-10-13T03:17:02.507Z,0.11
2022-10-13T03:19:32.562Z,0.1
2022-10-13T03:22:02.584Z,0.09
2022-10-13T03:24:32.659Z,0.09
2022-10-13T03:27:03.350Z,0.09
2022-10-13T03:29:33.874Z,0.09
2022-10-13T03:32:04.415Z,0.08
2022-10-13T03:34:35.270Z,0.1
2022-10-13T03:37:05.930Z,0.08
2022-10-13T03:39:36.611Z,0.08
2022-10-13T03:42:06.806Z,0.08
2022-10-13T03:44:37.571Z,0.08
2022-10-13T03:47:07.593Z,0.08
2022-10-13T03:49:38.288Z,0.07
2022-10-13T03:52:08.938Z,0.07
2022-10-13T03:54:39.432Z,0.06
2022-10-13T03:57:10.287Z,0.06
2022-10-13T03:59:40.847Z,0.06
2022-10-13T04:02:11.371Z,0.06
2022-10-13T04:04:41.404Z,0.06
2022-10-13T04:07:12.234Z,0.06
2022-10-13T04:09:42.264Z,0.06
2022-10-13T04:12:15.122Z,0.06
2022-10-13T04:14:42.877Z,0.06
2022-10-13T04:17:13.447Z,0.06
2022-10-13T04:19:43.925Z,0.06
2022-10-13T04:22:14.690Z,0.06
2022-10-13T04:24:45.456Z,0.06
2022-10-13T04:27:15.741Z,0.06
2022-10-13T04:29:46.247Z,0.06
2022-10-13T04:32:16.646Z,0.05
2022-10-13T04:34:47.405Z,0.05
2022-10-13T04:37:18.303Z,0.05
2022-10-13T04:39:49.273Z,0.05
2022-10-13T04:42:19.680Z,0.05
2022-10-13T04:44:50.326Z,0.05
2022-10-13T04:47:20.933Z,0.05
2022-10-13T04:49:51.839Z,0.04
2022-10-13T04:52:22.434Z,0.05
2022-10-13T04:54:53.008Z,0.05
2022-10-13T04:57:22.954Z,0.05
2022-10-13T04:59:53.317Z,0.05
2022-10-13T05:02:23.612Z,0.06
2022-10-13T05:04:54.252Z,0.06
2022-10-13T05:07:24.922Z,0.05
2022-10-13T05:09:55.134Z,0.05
2022-10-13T05:12:25.722Z,0.05
2022-10-13T05:14:55.790Z,0.05
2022-10-13T05:17:26.041Z,0.05
2022-10-13T05:19:56.575Z,0.05
2022-10-13T05:22:26.921Z,0.05
2022-10-13T05:24:57.248Z,0.05
2022-10-13T05:27:27.508Z,0.06
2022-10-13T05:29:58.176Z,0.07
2022-10-13T05:32:28.369Z,0.06
2022-10-13T05:34:58.649Z,0.06
2022-10-13T05:37:29.226Z,0.06
2022-10-13T05:39:59.512Z,0.06
2022-10-13T05:42:29.554Z,0.07
2022-10-13T05:44:59.926Z,0.06
2022-10-13T05:47:30.596Z,0.06
2022-10-13T05:50:01.187Z,0.05
2022-10-13T05:52:31.225Z,0.05
2022-10-13T05:55:01.919Z,0.05
2022-10-13T05:57:32.209Z,0.06
2022-10-13T06:00:03.129Z,0.07
2022-10-13T06:02:33.941Z,0.07
2022-10-13T06:05:04.059Z,0.07
2022-10-13T06:07:34.902Z,0.07
2022-10-13T06:10:04.957Z,0.07
2022-10-13T06:12:35.838Z,0.07
2022-10-13T06:15:06.172Z,0.07
2022-10-13T06:17:36.635Z,0.07
2022-10-13T06:20:07.535Z,0.07
2022-10-13T06:22:38.134Z,0.06
2022-10-13T06:25:08.954Z,0.05
2022-10-13T06:27:39.043Z,0.05
2022-10-13T06:30:09.817Z,0.05
2022-10-13T06:32:40.648Z,0.04
2022-10-13T06:35:10.865Z,0.04
2022-10-13T06:37:41.744Z,0.05
2022-10-13T06:40:11.722Z,0.06
2022-10-13T06:42:42.314Z,0.07
2022-10-13T06:45:13.039Z,0.06
2022-10-13T06:47:43.160Z,0.06
2022-10-13T06:50:13.999Z,0.06
2022-10-13T06:52:44.410Z,0.06
2022-10-13T06:55:14.861Z,0.06
2022-10-13T06:57:44.941Z,0.06
2022-10-13T07:00:15.779Z,0.06
2022-10-13T07:02:46.288Z,0.07
2022-10-13T07:05:16.337Z,0.06
2022-10-13T07:07:46.565Z,0.06
2022-10-13T07:10:17.104Z,0.06
2022-10-13T07:12:47.418Z,0.06
2022-10-13T07:15:17.417Z,0.07
2022-10-13T07:17:48.153Z,0.07
2022-10-13T07:20:18.809Z,0.07
2022-10-13T07:22:49.010Z,0.06
2022-10-13T07:25:19.768Z,0.06
2022-10-13T07:27:50.084Z,0.07
2022-10-13T07:30:20.305Z,0.08
2022-10-13T07:32:50.710Z,0.08
2022-10-13T07:35:21.386Z,0.1
2022-10-13T07:37:51.657Z,0.09
2022-10-13T07:40:22.275Z,0.08
2022-10-13T07:42:52.345Z,0.09
2022-10-13T07:45:22.616Z,0.08
2022-10-13T07:47:53.096Z,0.08
2022-10-13T07:50:25.460Z,0.08
2022-10-13T07:52:53.930Z,0.08
2022-10-13T07:55:24.472Z,0.1
2022-10-13T07:57:54.619Z,0.08
2022-10-13T08:00:25.267Z,0.07
2022-10-13T08:02:55.297Z,0.09
2022-10-13T08:05:25.919Z,0.11
2022-10-13T08:07:58.450Z,0.09
2022-10-13T08:10:26.818Z,0.11
2022-10-13T08:12:57.521Z,0.1
2022-10-13T08:15:27.991Z,0.09
2022-10-13T08:17:58.119Z,0.08
2022-10-13T08:20:36.199Z,0.09
2022-10-13T08:22:58.570Z,0.09
2022-10-13T08:25:29.130Z,0.09
2022-10-13T08:28:00.648Z,0.13
2022-10-13T08:30:30.436Z,0.11
2022-10-13T08:33:01.084Z,0.11
2022-10-13T08:35:34.867Z,0.13
2022-10-13T08:38:01.910Z,0.13
2022-10-13T08:40:32.789Z,0.14
2022-10-13T08:43:03.323Z,0.12
2022-10-13T08:45:41.490Z,0.1
2022-10-13T08:48:04.050Z,0.1
2022-10-13T08:50:34.684Z,0.11
2022-10-13T08:53:04.654Z,0.11
2022-10-13T08:55:34.881Z,0.12
2022-10-13T08:58:05.435Z,0.12
2022-10-13T09:00:35.967Z,0.13
2022-10-13T09:03:06.597Z,0.12
2022-10-13T09:05:37.138Z,0.11
2022-10-13T09:08:07.562Z,0.13
2022-10-13T09:10:38.149Z,0.13
2022-10-13T09:13:08.311Z,0.11
2022-10-13T09:15:39.154Z,0.14
2022-10-13T09:18:09.870Z,0.14
2022-10-13T09:20:40.383Z,0.14
2022-10-13T09:23:10.531Z,0.14
2022-10-13T09:25:40.971Z,0.16
2022-10-13T09:28:11.199Z,0.16
2022-10-13T09:30:41.604Z,0.15
2022-10-13T09:33:12.011Z,0.14
2022-10-13T09:35:42.775Z,0.14
2022-10-13T09:38:13.254Z,0.16
2022-10-13T09:43:14.787Z,0.15
2022-10-13T09:45:45.282Z,0.13
2022-10-13T09:48:15.666Z,0.13
2022-10-13T09:50:46.423Z,0.13
2022-10-13T09:53:16.843Z,0.12
2022-10-13T09:55:47.287Z,0.13
2022-10-13T09:58:17.626Z,0.13
2022-10-13T10:00:48.407Z,0.12
2022-10-13T10:03:18.860Z,0.1
2022-10-13T10:05:49.366Z,0.1
2022-10-13T10:08:25.286Z,0.12
2022-10-13T10:10:50.834Z,0.11
2022-10-13T10:13:21.136Z,0.12
2022-10-13T10:15:51.727Z,0.12
2022-10-13T10:18:22.534Z,0.11
2022-10-13T10:20:53.304Z,0.1
2022-10-13T10:23:24.121Z,0.13
2022-10-13T10:25:54.257Z,0.16
2022-10-13T10:28:24.852Z,0.14
2022-10-13T10:30:55.334Z,0.15
2022-10-13T10:33:25.517Z,0.14
2022-10-13T10:35:56.085Z,0.16
2022-10-13T10:38:26.160Z,0.13
2022-10-13T10:40:56.343Z,0.14
2022-10-13T10:43:26.515Z,0.12
2022-10-13T10:45:56.920Z,0.13
2022-10-13T10:48:27.022Z,0.14
2022-10-13T10:50:57.488Z,0.13
2022-10-13T10:53:27.585Z,0.14
2022-10-13T10:55:58.349Z,0.13
2022-10-13T10:58:28.462Z,0.14
2022-10-13T11:00:59.233Z,0.12
2022-10-13T11:03:29.944Z,0.13
2022-10-13T11:06:00.696Z,0.15
2022-10-13T11:08:30.783Z,0.14
2022-10-13T11:11:01.546Z,0.13
2022-10-13T11:13:31.565Z,0.13
2022-10-13T11:16:02.399Z,0.12
2022-10-13T11:18:32.706Z,0.13
2022-10-13T11:21:03.253Z,0.12
2022-10-13T11:23:33.649Z,0.13
2022-10-13T11:26:04.026Z,0.11
2022-10-13T11:28:34.589Z,0.11
2022-10-13T11:31:04.634Z,0.13
2022-10-13T11:33:35.372Z,0.13
2022-10-13T11:36:05.833Z,0.12
2022-10-13T11:38:36.183Z,0.12
2022-10-13T11:41:06.368Z,0.15
2022-10-13T11:43:36.781Z,0.13
2022-10-13T11:46:07.191Z,0.11
2022-10-13T11:48:37.644Z,0.12
2022-10-13T11:51:08.827Z,0.13
2022-10-13T11:53:38.189Z,0.11
2022-10-13T11:56:08.764Z,0.1
2022-10-13T11:58:39.071Z,0.13
2022-10-13T12:01:09.755Z,0.12
2022-10-13T12:03:40.425Z,0.13
2022-10-13T12:06:11.165Z,0.13
2022-10-13T12:08:41.307Z,0.13
2022-10-13T12:11:11.721Z,0.14
2022-10-13T12:13:41.943Z,0.13
2022-10-13T12:16:12.311Z,0.13
2022-10-13T12:18:42.614Z,0.11
2022-10-13T12:21:12.886Z,0.14
2022-10-13T12:23:43.192Z,0.13
2022-10-13T12:26:13.334Z,0.13
2022-10-13T12:28:44.198Z,0.12
2022-10-13T12:31:14.726Z,0.11
2022-10-13T12:33:44.740Z,0.12
2022-10-13T12:36:15.251Z,0.14
2022-10-13T12:38:45.903Z,0.16
2022-10-13T12:41:15.934Z,0.13
2022-10-13T12:43:46.209Z,0.13
2022-10-13T12:46:16.133Z,0.12
2022-10-13T12:48:46.276Z,0.15
2022-10-13T12:51:16.413Z,0.15
2022-10-13T12:53:47.031Z,0.15
2022-10-13T12:56:17.189Z,0.13
2022-10-13T12:58:47.325Z,0.14
2022-10-13T13:01:17.435Z,0.16
2022-10-13T13:03:47.754Z,0.19
2022-10-13T13:06:18.447Z,0.2
2022-10-13T13:08:48.565Z,0.24
2022-10-13T13:11:18.660Z,0.23
2022-10-13T13:13:49.127Z,0.22
2022-10-13T13:16:19.188Z,0.21
2022-10-13T13:18:49.609Z,0.21
2022-10-13T13:21:20.324Z,0.21
2022-10-13T13:23:53.756Z,0.22
2022-10-13T13:26:21.126Z,0.2
2022-10-13T13:28:51.747Z,0.19
2022-10-13T13:31:22.325Z,0.19
2022-10-13T13:33:52.620Z,0.18
2022-10-13T13:36:23.266Z,0.17
2022-10-13T13:38:53.486Z,0.18
2022-10-13T13:41:24.181Z,0.16
2022-10-13T13:43:54.779Z,0.17
2022-10-13T13:46:25.203Z,0.17
2022-10-13T13:48:55.543Z,0.14
2022-10-13T13:51:26.138Z,0.14
2022-10-13T13:53:56.670Z,0.14
2022-10-13T13:56:26.804Z,0.14
2022-10-13T13:58:57.333Z,0.12
2022-10-13T14:01:28.257Z,0.11
2022-10-13T14:03:58.793Z,0.09
2022-10-13T14:06:29.116Z,0.1
2022-10-13T14:08:59.440Z,0.13
2022-10-13T14:11:30.073Z,0.13
2022-10-13T14:14:00.217Z,0.16
2022-10-13T14:16:30.613Z,0.15
2022-10-13T14:19:00.930Z,0.14
2022-10-13T14:21:31.167Z,0.13
2022-10-13T14:24:01.546Z,0.1
2022-10-13T14:26:32.166Z,0.1
2022-10-13T14:29:02.298Z,0.11
2022-10-13T14:31:32.710Z,0.12
2022-10-13T14:34:02.985Z,0.11
2022-10-13T14:36:33.727Z,0.13
2022-10-13T14:39:03.952Z,0.1
2022-10-13T14:41:34.176Z,0.08
2022-10-13T14:44:04.496Z,0.08
2022-10-13T14:46:35.166Z,0.09
2022-10-13T14:49:05.297Z,0.1
2022-10-13T14:51:35.688Z,0.11
2022-10-13T14:54:05.862Z,0.1
2022-10-13T14:56:36.048Z,0.11
2022-10-13T14:59:06.206Z,0.1
2022-10-13T15:01:36.477Z,0.09
2022-10-13T15:04:07.092Z,0.08
2022-10-13T15:06:37.236Z,0.08
2022-10-13T15:09:10.045Z,0.1
2022-10-13T15:11:37.536Z,0.1
2022-10-13T15:14:07.968Z,0.11
2022-10-13T15:16:38.359Z,0.1
2022-10-13T15:19:08.767Z,0.13
2022-10-13T15:21:39.598Z,0.11
2022-10-13T15:24:09.761Z,0.11
2022-10-13T15:26:39.952Z,0.13
2022-10-13T15:29:10.031Z,0.12
2022-10-13T15:31:40.971Z,0.09
2022-10-13T15:34:11.058Z,0.12
2022-10-13T15:36:41.274Z,0.13
2022-10-13T15:39:11.843Z,0.12
2022-10-13T15:41:41.957Z,0.12
2022-10-13T15:44:12.615Z,0.11
2022-10-13T15:47:05.493Z,0.12
2022-10-13T15:49:13.334Z,0.14
2022-10-13T15:51:43.763Z,0.14
2022-10-13T15:54:13.926Z,0.13
2022-10-13T15:56:44.736Z,0.13
2022-10-13T15:59:15.169Z,0.12
2022-10-13T16:01:45.830Z,0.11
2022-10-13T16:04:16.423Z,0.1
2022-10-13T16:06:47.095Z,0.1
2022-10-13T16:09:17.303Z,0.1
2022-10-13T16:11:47.924Z,0.1
2022-10-13T16:14:18.654Z,0.1
2022-10-13T16:16:48.822Z,0.12
2022-10-13T16:19:18.904Z,0.13
2022-10-13T16:21:49.208Z,0.13
2022-10-13T16:24:19.246Z,0.14
2022-10-13T16:26:49.347Z,0.13
2022-10-13T16:29:20.169Z,0.12
2022-10-13T16:31:50.537Z,0.13
2022-10-13T16:34:21.299Z,0.12
2022-10-13T16:36:51.347Z,0.14
2022-10-13T16:39:22.142Z,0.11
2022-10-13T16:41:52.626Z,0.11
2022-10-13T16:44:22.773Z,0.12
2022-10-13T16:46:52.955Z,0.12
2022-10-13T16:49:23.109Z,0.11
2022-10-13T16:51:53.306Z,0.11
2022-10-13T16:54:23.735Z,0.11
2022-10-13T16:56:53.846Z,0.13
2022-10-13T16:59:24.513Z,0.13
2022-10-13T17:01:55.283Z,0.13
2022-10-13T17:04:26.052Z,0.15
2022-10-13T17:06:56.672Z,0.14
2022-10-13T17:09:27.136Z,0.13
2022-10-13T17:11:57.667Z,0.12
2022-10-13T17:14:28.049Z,0.1
2022-10-13T17:16:58.850Z,0.1
2022-10-13T17:19:29.164Z,0.1
2022-10-13T17:21:59.390Z,0.09
2022-10-13T17:24:30.176Z,0.1
2022-10-13T17:27:00.731Z,0.08
2022-10-13T17:29:31.355Z,0.08
2022-10-13T17:32:01.527Z,0.08
2022-10-13T17:34:31.919Z,0.08
2022-10-13T17:37:02.675Z,0.11
2022-10-13T17:39:32.740Z,0.12
2022-10-13T17:42:03.386Z,0.11
2022-10-13T17:44:34.057Z,0.1
2022-10-13T17:47:04.106Z,0.08
2022-10-13T17:49:34.731Z,0.08
2022-10-13T17:52:04.920Z,0.09
2022-10-13T17:54:35.541Z,0.11
2022-10-13T17:57:06.337Z,0.11
2022-10-13T17:59:36.683Z,0.09
2022-10-13T18:02:07.233Z,0.09
2022-10-13T18:04:37.774Z,0.08
2022-10-13T18:07:08.673Z,0.09
2022-10-13T18:09:39.261Z,0.09
2022-10-13T18:12:09.527Z,0.1
2022-10-13T18:14:39.854Z,0.09
2022-10-13T18:17:09.911Z,0.09
2022-10-13T18:19:40.384Z,0.07
2022-10-13T18:22:10.306Z,0.08
2022-10-13T18:24:40.546Z,0.08
2022-10-13T18:27:11.008Z,0.08
2022-10-13T18:29:41.801Z,0.08
2022-10-13T18:32:12.499Z,0.08
2022-10-13T18:34:43.121Z,0.08
2022-10-13T18:37:13.593Z,0.08
2022-10-13T18:39:43.713Z,0.08
2022-10-13T18:42:14.052Z,0.09
2022-10-13T18:44:44.608Z,0.08
2022-10-13T18:47:14.689Z,0.09
2022-10-13T18:49:45.470Z,0.09
2022-10-13T18:52:16.259Z,0.08
2022-10-13T18:54:46.652Z,0.11
2022-10-13T18:57:16.837Z,0.13
2022-10-13T18:59:47.539Z,0.12
2022-10-13T19:02:18.022Z,0.12
2022-10-13T19:04:48.241Z,0.12
2022-10-13T19:07:18.828Z,0.12
2022-10-13T19:09:49.159Z,0.1
2022-10-13T19:12:19.627Z,0.1
2022-10-13T19:14:49.988Z,0.11
2022-10-13T19:17:20.992Z,0.12
2022-10-13T19:19:50.737Z,0.13
2022-10-13T19:22:20.807Z,0.13
2022-10-13T19:24:51.309Z,0.12
2022-10-13T19:27:21.890Z,0.1
2022-10-13T19:29:52.226Z,0.11
2022-10-13T19:32:22.696Z,0.12
2022-10-13T19:34:53.520Z,0.12
2022-10-13T19:37:24.198Z,0.11
2022-10-13T19:39:54.948Z,0.1
2022-10-13T19:42:25.460Z,0.1
2022-10-13T19:44:56.314Z,0.11
2022-10-13T19:47:27.087Z,0.11
2022-10-13T19:49:57.708Z,0.1
2022-10-13T19:52:28.560Z,0.11
2022-10-13T19:54:58.663Z,0.1
2022-10-13T19:57:29.430Z,0.09
2022-10-13T19:59:59.845Z,0.12
2022-10-13T20:02:29.973Z,0.1
2022-10-13T20:05:00.466Z,0.09
2022-10-13T20:07:31.123Z,0.09
2022-10-13T20:10:01.753Z,0.09
2022-10-13T20:12:32.372Z,0.09
2022-10-13T20:15:02.770Z,0.09
2022-10-13T20:17:33.035Z,0.09
2022-10-13T20:20:03.660Z,0.09
2022-10-13T20:22:33.929Z,0.09
2022-10-13T20:25:04.413Z,0.09
2022-10-13T20:27:34.962Z,0.08
2022-10-13T20:30:05.224Z,0.08
2022-10-13T20:32:35.372Z,0.08
2022-10-13T20:35:05.850Z,0.08
2022-10-13T20:37:36.259Z,0.07
2022-10-13T20:40:07.071Z,0.07
2022-10-13T20:42:37.316Z,0.07
2022-10-13T20:45:07.519Z,0.07
2022-10-13T20:47:37.541Z,0.07
2022-10-13T20:50:07.949Z,0.07
2022-10-13T20:52:37.991Z,0.06
2022-10-13T20:55:08.520Z,0.06
2022-10-13T20:57:38.843Z,0.06
2022-10-13T21:00:09.307Z,0.05
2022-10-13T21:02:39.643Z,0.05
2022-10-13T21:05:10.142Z,0.05
2022-10-13T21:07:40.750Z,0.05
2022-10-13T21:10:11.500Z,0.05
2022-10-13T21:12:41.664Z,0.05
2022-10-13T21:15:11.878Z,0.05
2022-10-13T21:17:42.645Z,0.06
2022-10-13T21:20:12.824Z,0.06
2022-10-13T21:22:42.962Z,0.06
2022-10-13T21:25:13.755Z,0.06
2022-10-13T21:27:44.104Z,0.06
2022-10-13T21:30:14.802Z,0.06
2022-10-13T21:32:45.662Z,0.06
2022-10-13T21:35:16.421Z,0.08
2022-10-13T21:37:46.673Z,0.08
2022-10-13T21:40:17.028Z,0.08
2022-10-13T21:42:47.758Z,0.09
2022-10-13T21:45:18.399Z,0.08
2022-10-13T21:47:48.495Z,0.09
2022-10-13T21:50:18.723Z,0.07
2022-10-13T21:52:48.855Z,0.07
2022-10-13T21:55:18.893Z,0.07
2022-10-13T21:57:49.539Z,0.06
2022-10-13T22:00:19.997Z,0.07
2022-10-13T22:02:49.638Z,0.07
2022-10-13T22:05:20.378Z,0.06
2022-10-13T22:07:51.153Z,0.07
2022-10-13T22:10:21.549Z,0.06
2022-10-13T22:12:51.904Z,0.06
2022-10-13T22:15:22.379Z,0.06
2022-10-13T22:17:53.075Z,0.06
2022-10-13T22:20:23.617Z,0.06
2022-10-13T22:22:54.078Z,0.07
2022-10-13T22:25:24.371Z,0.06
2022-10-13T22:27:54.919Z,0.06
2022-10-13T22:30:25.470Z,0.06
2022-10-13T22:32:56.139Z,0.06
2022-10-13T22:35:26.935Z,0.06
2022-10-13T22:37:57.358Z,0.05
2022-10-13T22:40:27.977Z,0.05
2022-10-13T22:42:58.332Z,0.05
2022-10-13T22:45:28.993Z,0.05
2022-10-13T22:47:58.926Z,0.05
2022-10-13T22:50:29.149Z,0.05
2022-10-13T22:52:59.584Z,0.05
2022-10-13T22:55:29.866Z,0.05
2022-10-13T22:58:00.436Z,0.05
2022-10-13T23:00:30.996Z,0.05
2022-10-13T23:03:01.851Z,0.05
2022-10-13T23:05:32.076Z,0.05
2022-10-13T23:08:02.381Z,0.05
2022-10-13T23:10:32.775Z,0.06
2022-10-13T23:13:03.158Z,0.06
2022-10-13T23:15:33.401Z,0.07
2022-10-13T23:18:03.734Z,0.07
2022-10-13T23:20:33.842Z,0.08
2022-10-13T23:23:04.641Z,0.08
2022-10-13T23:25:35.311Z,0.07
2022-10-13T23:28:05.592Z,0.06
2022-10-13T23:30:36.278Z,0.07
2022-10-13T23:33:06.399Z,0.07
2022-10-13T23:35:36.612Z,0.07
2022-10-13T23:38:06.787Z,0.07
2022-10-13T23:40:37.671Z,0.07
2022-10-13T23:43:07.816Z,0.07
2022-10-13T23:45:38.179Z,0.07
2022-10-13T23:48:08.361Z,0.07
2022-10-13T23:50:39.070Z,0.07
2022-10-13T23:53:09.304Z,0.08
2022-10-13T23:55:39.886Z,0.07
2022-10-13T23:58:10.016Z,0.08
